createdAt,value
2022-08-26T00:00:21.586Z,96008.38
2022-08-26T00:05:25.960Z,96009.91
2022-08-26T00:10:29.653Z,96004.88
2022-08-26T00:15:32.901Z,96005.13
2022-08-26T00:20:36.291Z,96001.63
2022-08-26T00:25:42.565Z,96009.25
2022-08-26T00:30:48.916Z,96009.28
2022-08-26T00:35:54.761Z,96005.47
2022-08-26T00:40:58.748Z,96013.38
2022-08-26T00:46:13.140Z,95996.44
2022-08-26T00:51:20.653Z,96011.88
2022-08-26T00:56:42.258Z,96000.72
2022-08-26T01:01:46.081Z,96008.59
2022-08-26T01:06:54.491Z,96013.66
2022-08-26T01:12:01.722Z,95998.28
2022-08-26T01:17:07.197Z,96005.91
2022-08-26T01:22:33.509Z,96007.69
2022-08-26T01:27:37.581Z,96007.47
2022-08-26T01:32:41.370Z,96004.16
2022-08-26T01:37:45.661Z,96009.75
2022-08-26T01:42:49.970Z,96002.63
2022-08-26T01:47:56.899Z,96002.63
2022-08-26T01:53:03.801Z,96004.16
2022-08-26T01:58:14.709Z,96004.19
2022-08-26T02:03:19.269Z,96011.53
2022-08-26T02:08:36.745Z,96005.47
2022-08-26T02:13:47.330Z,95997.84
2022-08-26T02:18:53.349Z,96002.41
2022-08-26T02:23:57.744Z,96000.91
2022-08-26T02:29:06.080Z,95998.88
2022-08-26T02:34:16.350Z,96003.94
2022-08-26T02:39:22.247Z,95992.28
2022-08-26T02:44:26.550Z,95997.13
2022-08-26T02:49:31.233Z,95994.06
2022-08-26T02:54:34.284Z,95994.06
2022-08-26T02:59:39.969Z,95988.25
2022-08-26T03:04:57.836Z,95992.53
2022-08-26T03:10:08.438Z,95986.47
2022-08-26T03:15:17.635Z,95989.50
2022-08-26T03:20:21.390Z,95974.78
2022-08-26T03:25:26.487Z,95978.34
2022-08-26T03:30:45.053Z,95969.72
2022-08-26T03:35:50.522Z,95971.00
2022-08-26T03:40:56.313Z,95977.59
2022-08-26T03:46:04.784Z,95971.78
2022-08-26T03:51:18.262Z,95974.31
2022-08-26T03:56:22.243Z,95968.69
2022-08-26T04:01:25.585Z,95958.84
2022-08-26T04:06:39.672Z,95973.28
2022-08-26T04:11:45.138Z,95981.66
2022-08-26T04:16:51.615Z,95980.91
2022-08-26T04:21:55.226Z,95975.31
2022-08-26T04:26:58.659Z,95971.78
2022-08-26T04:32:03.854Z,95973.03
2022-08-26T04:37:08.550Z,95974.50
2022-08-26T04:42:14.157Z,95979.34
2022-08-26T04:47:17.369Z,95977.56
2022-08-26T04:52:22.717Z,95989.97
2022-08-26T04:57:25.976Z,95989.66
2022-08-26T05:02:29.284Z,95983.53
2022-08-26T05:07:32.355Z,95992.03
2022-08-26T05:12:36.722Z,95990.97
2022-08-26T05:17:41.023Z,95994.72
2022-08-26T05:22:44.930Z,96004.31
2022-08-26T05:27:48.669Z,96009.63
2022-08-26T05:32:55.202Z,96009.31
2022-08-26T05:38:03.432Z,96009.16
2022-08-26T05:43:11.232Z,96012.38
2022-08-26T05:48:17.628Z,96013.47
2022-08-26T05:53:26.017Z,96012.03
2022-08-26T05:58:29.680Z,96012.66
2022-08-26T06:03:36.546Z,96017.97
2022-08-26T06:08:39.825Z,96016.88
2022-08-26T06:13:43.021Z,96016.81
2022-08-26T06:18:48.830Z,96014.72
2022-08-26T06:24:16.213Z,96024.50
2022-08-26T06:29:24.071Z,96024.19
2022-08-26T06:34:30.292Z,96020.78
2022-08-26T06:39:34.206Z,96019.31
2022-08-26T06:44:37.810Z,96016.84
2022-08-26T06:49:44.399Z,96015.53
2022-08-26T06:54:47.776Z,96010.69
2022-08-26T06:59:51.422Z,96013.31
2022-08-26T07:04:56.853Z,96019.69
2022-08-26T07:10:00.940Z,96029.75
2022-08-26T07:15:05.173Z,96030.72
2022-08-26T07:20:09.905Z,96039.09
2022-08-26T07:25:15.726Z,96030.41
2022-08-26T07:30:19.218Z,96035.16
2022-08-26T07:35:23.662Z,96041.53
2022-08-26T07:40:26.972Z,96047.66
2022-08-26T07:45:30.630Z,96050.63
2022-08-26T07:50:49.133Z,96049.94
2022-08-26T07:55:53.803Z,96041.00
2022-08-26T08:00:57.357Z,96043.91
2022-08-26T08:06:02.010Z,96042.41
2022-08-26T08:11:05.458Z,96042.72
2022-08-26T08:16:12.736Z,96038.41
2022-08-26T08:21:22.155Z,96040.38
2022-08-26T08:26:27.684Z,96039.41
2022-08-26T08:31:55.718Z,96033.56
2022-08-26T08:36:58.504Z,96038.16
2022-08-26T08:42:16.850Z,96029.84
2022-08-26T08:47:36.704Z,96034.75
2022-08-26T08:52:42.424Z,96024.19
2022-08-26T08:58:07.893Z,96039.06
2022-08-26T09:03:25.276Z,96027.75
2022-08-26T09:08:33.498Z,96035.31
2022-08-26T09:13:39.354Z,96036.09
2022-08-26T09:19:11.901Z,96032.44
2022-08-26T09:24:14.997Z,96028.25
2022-08-26T09:29:27.503Z,96045.09
2022-08-26T09:34:30.790Z,96016.41
2022-08-26T09:39:38.945Z,96029.09
2022-08-26T09:44:57.495Z,96027.59
2022-08-26T09:50:12.703Z,96022.09
2022-08-26T09:55:22.995Z,96020.78
2022-08-26T10:00:34.462Z,96009.28
2022-08-26T10:05:58.250Z,96006.09
2022-08-26T10:11:05.257Z,95984.63
2022-08-26T10:16:57.219Z,95982.16
2022-08-26T10:22:08.349Z,95975.56
2022-08-26T10:27:35.362Z,95969.56
2022-08-26T10:32:42.361Z,95962.75
2022-08-26T10:38:11.267Z,95972.50
2022-08-26T10:43:25.706Z,95965.66
2022-08-26T10:48:35.529Z,95973.16
2022-08-26T10:53:56.634Z,95961.47
2022-08-26T10:59:19.707Z,95954.25
2022-08-26T11:04:56.449Z,95950.34
2022-08-26T11:10:01.891Z,95947.59
2022-08-26T11:15:12.074Z,95945.91
2022-08-26T11:20:41.831Z,95943.25
2022-08-26T11:25:57.583Z,95939.72
2022-08-26T11:31:01.174Z,95921.59
2022-08-26T11:36:11.488Z,95934.03
2022-08-26T11:41:22.273Z,95915.13
2022-08-26T11:46:37.071Z,95904.84
2022-08-26T11:51:42.552Z,95916.63
2022-08-26T11:56:52.614Z,95893.28
2022-08-26T12:01:58.924Z,95876.72
2022-08-26T12:07:10.608Z,95904.94
2022-08-26T12:12:52.923Z,95892.50
2022-08-26T12:18:34.779Z,95898.00
2022-08-26T12:24:10.932Z,95852.28
2022-08-26T12:49:24.869Z,95816.50
2022-08-26T12:55:05.057Z,95846.69
2022-08-26T13:06:43.325Z,95793.63
2022-08-26T13:19:10.218Z,95788.47
2022-08-26T13:32:01.928Z,95803.47
2022-08-26T13:37:24.382Z,95805.38
2022-08-26T13:49:44.436Z,95788.19
2022-08-26T13:55:30.980Z,95787.31
2022-08-26T14:02:10.720Z,95798.31
2022-08-26T14:08:16.676Z,95799.84
2022-08-26T14:13:59.112Z,95775.75
2022-08-26T14:19:25.627Z,95770.97
2022-08-26T14:24:41.199Z,95771.47
2022-08-26T14:30:12.152Z,95758.88
2022-08-26T14:35:39.909Z,95752.25
2022-08-26T14:40:47.036Z,95776.78
2022-08-26T14:45:50.055Z,95768.91
2022-08-26T14:50:53.184Z,95768.31
2022-08-26T14:55:56.325Z,95754.97
2022-08-26T15:01:00.980Z,95761.53
2022-08-26T15:06:08.159Z,95763.66
2022-08-26T15:11:11.903Z,95756.56
2022-08-26T15:16:15.455Z,95758.19
2022-08-26T15:34:03.861Z,95730.66
2022-08-26T15:52:17.192Z,95697.22
2022-08-26T16:11:05.107Z,95718.84
2022-08-26T16:17:23.145Z,95716.44
2022-08-26T17:05:27.530Z,95732.72
2022-08-26T17:28:56.049Z,95691.34
2022-08-26T17:34:04.881Z,95736.13
2022-08-26T17:39:08.094Z,95739.47
2022-08-26T17:44:11.784Z,95719.25
2022-08-26T17:49:15.270Z,95759.66
2022-08-26T17:54:19.863Z,95772.31
2022-08-26T17:59:22.928Z,95776.19
2022-08-26T18:04:35.204Z,95769.75
2022-08-26T18:09:38.303Z,95777.03
2022-08-26T18:14:41.551Z,95762.91
2022-08-26T18:19:47.749Z,95780.41
2022-08-26T18:24:58.664Z,95774.75
2022-08-26T18:30:04.883Z,95767.00
2022-08-26T18:35:09.273Z,95772.72
2022-08-26T18:40:15.002Z,95793.91
2022-08-26T18:45:18.528Z,95824.50
2022-08-26T18:50:21.980Z,95830.13
2022-08-26T18:55:25.673Z,95814.50
2022-08-26T19:00:28.842Z,95812.72
2022-08-26T19:05:32.028Z,95830.84
2022-08-26T19:18:10.817Z,95858.41
2022-08-26T19:23:38.096Z,95859.66
2022-08-26T19:34:41.706Z,95869.03
2022-08-26T19:39:45.073Z,95848.19
2022-08-26T19:45:25.107Z,95875.09
2022-08-26T19:50:38.020Z,95864.13
2022-08-26T19:55:43.845Z,95868.00
2022-08-26T20:00:47.303Z,95852.13
2022-08-26T20:05:50.399Z,95849.41
2022-08-26T20:10:53.499Z,95862.34
2022-08-26T20:15:56.580Z,95859.88
2022-08-26T20:21:18.514Z,95819.81
2022-08-26T20:26:23.599Z,95845.06
2022-08-26T20:31:27.626Z,95845.91
2022-08-26T20:36:32.147Z,95832.22
2022-08-26T20:41:36.321Z,95848.44
2022-08-26T20:46:41.255Z,95865.34
2022-08-26T20:51:45.384Z,95881.88
2022-08-26T20:56:48.725Z,95878.34
2022-08-26T21:01:54.134Z,95867.03
2022-08-26T21:06:57.205Z,95871.03
2022-08-26T21:12:00.336Z,95879.78
2022-08-26T21:17:04.688Z,95879.97
2022-08-26T21:22:07.800Z,95880.69
2022-08-26T21:27:11.119Z,95902.53
2022-08-26T21:32:15.731Z,95908.47
2022-08-26T21:37:19.115Z,95912.47
2022-08-26T21:42:23.272Z,95930.38
2022-08-26T21:47:26.704Z,95935.75
2022-08-26T21:52:29.972Z,95926.63
2022-08-26T21:57:34.485Z,95939.50
2022-08-26T22:02:38.092Z,95931.75
2022-08-26T22:07:41.495Z,95929.41
2022-08-26T22:12:44.775Z,95910.94
2022-08-26T22:17:47.924Z,95941.59
2022-08-26T22:22:51.213Z,95938.56
2022-08-26T22:27:56.905Z,95945.81
2022-08-26T22:33:00.211Z,95946.16
2022-08-26T22:38:03.369Z,95958.41
2022-08-26T22:43:06.704Z,95970.19
2022-08-26T22:48:11.423Z,95973.72
2022-08-26T22:53:16.397Z,95976.09
2022-08-26T22:58:20.375Z,95955.25
2022-08-26T23:03:26.539Z,95959.28
2022-08-26T23:08:29.849Z,95953.63
2022-08-26T23:13:33.148Z,95968.44
2022-08-26T23:18:37.035Z,95952.34
2022-08-26T23:23:42.950Z,95967.94
2022-08-26T23:28:48.928Z,95959.94
2022-08-26T23:34:11.147Z,95965.63
2022-08-26T23:39:16.013Z,95976.53
2022-08-26T23:44:20.475Z,95982.47
2022-08-26T23:49:24.863Z,95970.00
2022-08-26T23:54:28.513Z,95973.69
2022-08-26T23:59:33.354Z,95982.25
